sensor_id;sensor_type;location;lat;lon;timestamp;pressure;altitude;pressure_sealevel;temperature;humidity
72226;BME280;60130;52.250;5.048;2023-06-10T00:00:00;1015.7;;;20.6;54.4
72226;BME280;60130;52.250;5.048;2023-06-10T00:05:00;1015.8;;;20.5;54.2
72226;BME280;60130;52.250;5.048;2023-06-10T00:10:00;1015.8;;;20.5;54.1
72226;BME280;60130;52.250;5.048;2023-06-10T00:15:00;1015.9;;;20.5;53.7
72226;BME280;60130;52.250;5.048;2023-06-10T00:20:00;1015.9;;;20.4;53.4
72226;BME280;60130;52.250;5.048;2023-06-10T00:25:00;1015.9;;;20.4;53.4
72226;BME280;60130;52.250;5.048;2023-06-10T00:30:00;1015.8;;;20.3;53.3
72226;BME280;60130;52.250;5.048;2023-06-10T00:35:00;1015.8;;;20.2;53.5
72226;BME280;60130;52.250;5.048;2023-06-10T00:40:00;1015.8;;;20.0;53.6
72226;BME280;60130;52.250;5.048;2023-06-10T00:45:00;1015.8;;;20.0;53.2
72226;BME280;60130;52.250;5.048;2023-06-10T00:50:00;1015.8;;;19.9;53.4
72226;BME280;60130;52.250;5.048;2023-06-10T00:55:00;1015.8;;;19.9;53.1
72226;BME280;60130;52.250;5.048;2023-06-10T01:00:00;1015.9;;;19.8;53.2
72226;BME280;60130;52.250;5.048;2023-06-10T01:05:00;1015.9;;;19.8;52.9
72226;BME280;60130;52.250;5.048;2023-06-10T01:10:02;1015.9;;;19.8;53.1
72226;BME280;60130;52.250;5.048;2023-06-10T01:15:00;1015.9;;;19.7;52.9
72226;BME280;60130;52.250;5.048;2023-06-10T01:20:00;1015.9;;;19.6;52.8
72226;BME280;60130;52.250;5.048;2023-06-10T01:25:00;1016.0;;;19.5;53.5
72226;BME280;60130;52.250;5.048;2023-06-10T01:30:04;1016.0;;;19.4;53.6
72226;BME280;60130;52.250;5.048;2023-06-10T01:35:01;1016.0;;;19.5;53.2
72226;BME280;60130;52.250;5.048;2023-06-10T01:40:02;1016.0;;;19.5;53.3
72226;BME280;60130;52.250;5.048;2023-06-10T01:45:00;1016.0;;;19.4;53.0
72226;BME280;60130;52.250;5.048;2023-06-10T01:50:00;1016.0;;;19.5;52.8
72226;BME280;60130;52.250;5.048;2023-06-10T01:55:00;1016.0;;;19.5;53.1
72226;BME280;60130;52.250;5.048;2023-06-10T02:00:00;1016.0;;;19.5;53.0
72226;BME280;60130;52.250;5.048;2023-06-10T02:05:00;1016.0;;;19.5;52.7
72226;BME280;60130;52.250;5.048;2023-06-10T02:10:00;1016.0;;;19.5;53.1
72226;BME280;60130;52.250;5.048;2023-06-10T02:15:00;1016.0;;;19.4;53.3
72226;BME280;60130;52.250;5.048;2023-06-10T02:20:00;1016.0;;;19.4;53.5
72226;BME280;60130;52.250;5.048;2023-06-10T02:25:00;1016.1;;;19.4;53.9
72226;BME280;60130;52.250;5.048;2023-06-10T02:30:00;1016.1;;;19.3;54.3
72226;BME280;60130;52.250;5.048;2023-06-10T02:35:00;1016.2;;;19.3;54.4
72226;BME280;60130;52.250;5.048;2023-06-10T02:40:00;1016.2;;;19.3;54.6
72226;BME280;60130;52.250;5.048;2023-06-10T02:45:00;1016.1;;;19.3;54.7
72226;BME280;60130;52.250;5.048;2023-06-10T02:50:00;1016.2;;;19.2;55.1
72226;BME280;60130;52.250;5.048;2023-06-10T02:55:00;1016.1;;;19.1;55.4
72226;BME280;60130;52.250;5.048;2023-06-10T03:00:00;1016.1;;;19.1;55.6
72226;BME280;60130;52.250;5.048;2023-06-10T03:05:00;1016.1;;;19.1;55.6
72226;BME280;60130;52.250;5.048;2023-06-10T03:10:00;1016.1;;;19.0;56.1
72226;BME280;60130;52.250;5.048;2023-06-10T03:15:00;1016.1;;;18.9;56.5
72226;BME280;60130;52.250;5.048;2023-06-10T03:20:00;1016.1;;;18.9;56.9
72226;BME280;60130;52.250;5.048;2023-06-10T03:25:00;1016.2;;;18.8;57.2
72226;BME280;60130;52.250;5.048;2023-06-10T03:30:00;1016.1;;;18.8;57.4
72226;BME280;60130;52.250;5.048;2023-06-10T03:35:00;1016.2;;;18.8;57.4
72226;BME280;60130;52.250;5.048;2023-06-10T03:40:00;1016.2;;;18.8;57.4
72226;BME280;60130;52.250;5.048;2023-06-10T03:45:00;1016.2;;;18.8;57.9
72226;BME280;60130;52.250;5.048;2023-06-10T03:50:00;1016.3;;;18.8;58.0
72226;BME280;60130;52.250;5.048;2023-06-10T03:55:00;1016.3;;;18.8;58.3
72226;BME280;60130;52.250;5.048;2023-06-10T04:00:00;1016.3;;;18.8;58.3
72226;BME280;60130;52.250;5.048;2023-06-10T04:05:00;1016.3;;;18.8;58.4
72226;BME280;60130;52.250;5.048;2023-06-10T04:10:00;1016.4;;;18.8;58.7
72226;BME280;60130;52.250;5.048;2023-06-10T04:15:00;1016.4;;;18.8;58.7
72226;BME280;60130;52.250;5.048;2023-06-10T04:20:00;1016.4;;;18.8;58.9
72226;BME280;60130;52.250;5.048;2023-06-10T04:25:00;1016.4;;;18.8;58.9
72226;BME280;60130;52.250;5.048;2023-06-10T04:30:00;1016.5;;;18.9;59.0
72226;BME280;60130;52.250;5.048;2023-06-10T04:35:00;1016.5;;;18.9;59.1
72226;BME280;60130;52.250;5.048;2023-06-10T04:40:00;1016.5;;;19.0;59.1
72226;BME280;60130;52.250;5.048;2023-06-10T04:45:00;1016.5;;;19.1;59.2
72226;BME280;60130;52.250;5.048;2023-06-10T04:50:00;1016.6;;;19.2;58.8
72226;BME280;60130;52.250;5.048;2023-06-10T04:55:00;1016.6;;;20.4;55.9
72226;BME280;60130;52.250;5.048;2023-06-10T05:00:00;1016.7;;;21.0;54.6
72226;BME280;60130;52.250;5.048;2023-06-10T05:05:00;1016.7;;;21.0;54.6
72226;BME280;60130;52.250;5.048;2023-06-10T05:10:00;1016.7;;;21.1;54.0
72226;BME280;60130;52.250;5.048;2023-06-10T05:15:00;1016.7;;;21.7;53.0
72226;BME280;60130;52.250;5.048;2023-06-10T05:20:00;1016.7;;;21.7;52.9
72226;BME280;60130;52.250;5.048;2023-06-10T05:25:00;1016.7;;;21.5;54.1
72226;BME280;60130;52.250;5.048;2023-06-10T05:30:00;1016.7;;;21.8;53.3
72226;BME280;60130;52.250;5.048;2023-06-10T05:35:00;1016.7;;;21.9;53.0
72226;BME280;60130;52.250;5.048;2023-06-10T05:40:00;1016.7;;;22.5;52.1
72226;BME280;60130;52.250;5.048;2023-06-10T05:45:00;1016.8;;;23.3;50.1
72226;BME280;60130;52.250;5.048;2023-06-10T05:50:00;1016.8;;;23.4;49.4
72226;BME280;60130;52.250;5.048;2023-06-10T05:55:00;1016.9;;;24.3;48.2
72226;BME280;60130;52.250;5.048;2023-06-10T06:00:00;1016.8;;;24.5;46.5
72226;BME280;60130;52.250;5.048;2023-06-10T06:05:00;1016.9;;;25.1;46.8
72226;BME280;60130;52.250;5.048;2023-06-10T06:10:00;1016.9;;;25.2;45.7
72226;BME280;60130;52.250;5.048;2023-06-10T06:15:00;1016.9;;;25.5;46.3
72226;BME280;60130;52.250;5.048;2023-06-10T06:20:00;1016.9;;;26.0;44.1
72226;BME280;60130;52.250;5.048;2023-06-10T06:25:00;1016.9;;;25.7;44.5
72226;BME280;60130;52.250;5.048;2023-06-10T06:30:00;1016.9;;;26.0;42.8
72226;BME280;60130;52.250;5.048;2023-06-10T06:35:00;1016.8;;;26.7;42.2
72226;BME280;60130;52.250;5.048;2023-06-10T06:40:00;1016.9;;;26.6;42.0
72226;BME280;60130;52.250;5.048;2023-06-10T06:45:00;1016.9;;;26.2;42.7
72226;BME280;60130;52.250;5.048;2023-06-10T06:50:00;1016.9;;;26.5;42.3
72226;BME280;60130;52.250;5.048;2023-06-10T06:55:00;1016.9;;;27.0;42.8
72226;BME280;60130;52.250;5.048;2023-06-10T07:00:00;1016.9;;;27.3;40.8
72226;BME280;60130;52.250;5.048;2023-06-10T07:05:00;1016.9;;;27.0;41.1
72226;BME280;60130;52.250;5.048;2023-06-10T07:10:00;1017.0;;;27.5;40.6
72226;BME280;60130;52.250;5.048;2023-06-10T07:15:00;1016.9;;;27.2;39.9
72226;BME280;60130;52.250;5.048;2023-06-10T07:20:00;1016.9;;;26.9;41.3
72226;BME280;60130;52.250;5.048;2023-06-10T07:25:00;1017.0;;;27.1;40.9
72226;BME280;60130;52.250;5.048;2023-06-10T07:30:00;1017.0;;;27.9;39.3
72226;BME280;60130;52.250;5.048;2023-06-10T07:35:00;1017.0;;;27.5;39.2
72226;BME280;60130;52.250;5.048;2023-06-10T07:40:00;1017.0;;;28.1;39.0
72226;BME280;60130;52.250;5.048;2023-06-10T07:45:00;1017.0;;;28.5;39.6
72226;BME280;60130;52.250;5.048;2023-06-10T07:50:00;1017.1;;;28.7;37.6
72226;BME280;60130;52.250;5.048;2023-06-10T07:55:00;1017.1;;;28.6;38.1
72226;BME280;60130;52.250;5.048;2023-06-10T08:00:00;1017.1;;;29.0;37.6
72226;BME280;60130;52.250;5.048;2023-06-10T08:05:00;1017.1;;;28.7;38.6
72226;BME280;60130;52.250;5.048;2023-06-10T08:10:00;1017.1;;;28.2;37.7
72226;BME280;60130;52.250;5.048;2023-06-10T08:15:00;1017.0;;;28.5;37.4
72226;BME280;60130;52.250;5.048;2023-06-10T08:20:00;1017.1;;;28.3;38.5
72226;BME280;60130;52.250;5.048;2023-06-10T08:25:00;1017.0;;;27.7;39.2
72226;BME280;60130;52.250;5.048;2023-06-10T08:30:00;1017.0;;;27.6;39.8
72226;BME280;60130;52.250;5.048;2023-06-10T08:35:00;1017.0;;;27.5;41.9
72226;BME280;60130;52.250;5.048;2023-06-10T08:40:00;1016.9;;;27.4;41.1
72226;BME280;60130;52.250;5.048;2023-06-10T08:45:01;1016.9;;;27.2;43.4
72226;BME280;60130;52.250;5.048;2023-06-10T08:50:02;1016.9;;;27.3;42.9
72226;BME280;60130;52.250;5.048;2023-06-10T08:55:03;1016.9;;;27.2;43.9
72226;BME280;60130;52.250;5.048;2023-06-10T09:00:00;1017.0;;;27.3;43.6
72226;BME280;60130;52.250;5.048;2023-06-10T09:05:00;1017.0;;;27.2;44.2
72226;BME280;60130;52.250;5.048;2023-06-10T09:10:00;1017.0;;;27.4;43.6
72226;BME280;60130;52.250;5.048;2023-06-10T09:15:00;1017.0;;;27.5;43.8
72226;BME280;60130;52.250;5.048;2023-06-10T09:20:00;1017.0;;;27.5;42.4
72226;BME280;60130;52.250;5.048;2023-06-10T09:25:02;1017.0;;;27.5;42.2
72226;BME280;60130;52.250;5.048;2023-06-10T09:30:00;1017.0;;;27.6;42.1
72226;BME280;60130;52.250;5.048;2023-06-10T09:35:09;1017.0;;;27.8;42.0
72226;BME280;60130;52.250;5.048;2023-06-10T09:40:02;1017.0;;;27.8;41.4
72226;BME280;60130;52.250;5.048;2023-06-10T09:45:00;1017.0;;;27.9;41.2
72226;BME280;60130;52.250;5.048;2023-06-10T09:50:00;1017.0;;;28.4;40.3
72226;BME280;60130;52.250;5.048;2023-06-10T09:55:01;1017.0;;;28.5;39.9
72226;BME280;60130;52.250;5.048;2023-06-10T10:00:04;1017.0;;;28.6;39.6
72226;BME280;60130;52.250;5.048;2023-06-10T10:05:02;1017.0;;;29.0;38.9
72226;BME280;60130;52.250;5.048;2023-06-10T10:10:00;1017.0;;;28.9;38.3
72226;BME280;60130;52.250;5.048;2023-06-10T10:15:01;1017.0;;;29.0;37.7
72226;BME280;60130;52.250;5.048;2023-06-10T10:20:02;1016.9;;;29.3;37.7
72226;BME280;60130;52.250;5.048;2023-06-10T10:25:02;1016.8;;;29.6;36.4
72226;BME280;60130;52.250;5.048;2023-06-10T10:30:01;1016.9;;;29.5;37.9
72226;BME280;60130;52.250;5.048;2023-06-10T10:35:07;1016.8;;;29.6;36.2
72226;BME280;60130;52.250;5.048;2023-06-10T10:40:00;1016.8;;;29.8;36.3
72226;BME280;60130;52.250;5.048;2023-06-10T10:45:00;1016.8;;;29.9;36.1
72226;BME280;60130;52.250;5.048;2023-06-10T10:50:00;1016.8;;;30.0;36.0
72226;BME280;60130;52.250;5.048;2023-06-10T10:55:01;1016.8;;;30.0;32.7
72226;BME280;60130;52.250;5.048;2023-06-10T11:00:00;1016.7;;;30.2;32.1
72226;BME280;60130;52.250;5.048;2023-06-10T11:05:00;1016.7;;;30.4;34.1
72226;BME280;60130;52.250;5.048;2023-06-10T11:10:01;1016.6;;;30.2;31.7
72226;BME280;60130;52.250;5.048;2023-06-10T11:15:00;1016.6;;;30.4;31.4
72226;BME280;60130;52.250;5.048;2023-06-10T11:20:00;1016.5;;;30.7;31.8
72226;BME280;60130;52.250;5.048;2023-06-10T11:25:00;1016.5;;;30.7;31.8
72226;BME280;60130;52.250;5.048;2023-06-10T11:30:19;1016.5;;;30.7;29.5
72226;BME280;60130;52.250;5.048;2023-06-10T11:35:02;1016.5;;;30.9;32.1
72226;BME280;60130;52.250;5.048;2023-06-10T11:40:00;1016.4;;;30.7;30.9
72226;BME280;60130;52.250;5.048;2023-06-10T11:45:00;1016.3;;;30.7;30.4
72226;BME280;60130;52.250;5.048;2023-06-10T11:50:00;1016.3;;;31.0;30.6
72226;BME280;60130;52.250;5.048;2023-06-10T11:55:00;1016.3;;;31.0;30.0
72226;BME280;60130;52.250;5.048;2023-06-10T12:00:04;1016.3;;;30.9;31.6
72226;BME280;60130;52.250;5.048;2023-06-10T12:05:10;1016.3;;;31.4;29.4
72226;BME280;60130;52.250;5.048;2023-06-10T12:10:00;1016.2;;;31.4;29.3
72226;BME280;60130;52.250;5.048;2023-06-10T12:15:00;1016.1;;;31.1;29.4
72226;BME280;60130;52.250;5.048;2023-06-10T12:20:01;1016.1;;;30.8;29.3
72226;BME280;60130;52.250;5.048;2023-06-10T12:25:01;1016.0;;;31.2;28.8
72226;BME280;60130;52.250;5.048;2023-06-10T12:30:01;1016.0;;;31.2;28.6
72226;BME280;60130;52.250;5.048;2023-06-10T12:35:02;1016.1;;;31.6;29.0
72226;BME280;60130;52.250;5.048;2023-06-10T12:40:00;1016.1;;;31.8;29.8
72226;BME280;60130;52.250;5.048;2023-06-10T12:45:00;1016.0;;;32.1;28.4
72226;BME280;60130;52.250;5.048;2023-06-10T12:50:00;1016.0;;;31.6;27.6
72226;BME280;60130;52.250;5.048;2023-06-10T12:55:00;1015.9;;;31.3;28.1
72226;BME280;60130;52.250;5.048;2023-06-10T13:00:00;1016.0;;;31.8;30.5
72226;BME280;60130;52.250;5.048;2023-06-10T13:05:00;1015.9;;;31.4;27.1
72226;BME280;60130;52.250;5.048;2023-06-10T13:10:00;1015.9;;;31.5;27.9
72226;BME280;60130;52.250;5.048;2023-06-10T13:15:00;1016.0;;;31.4;26.4
72226;BME280;60130;52.250;5.048;2023-06-10T13:20:00;1015.9;;;32.0;26.5
72226;BME280;60130;52.250;5.048;2023-06-10T13:25:00;1015.8;;;31.7;26.9
72226;BME280;60130;52.250;5.048;2023-06-10T13:30:00;1015.8;;;31.7;27.2
72226;BME280;60130;52.250;5.048;2023-06-10T13:35:00;1015.7;;;31.5;27.0
72226;BME280;60130;52.250;5.048;2023-06-10T13:40:00;1015.8;;;31.6;26.4
72226;BME280;60130;52.250;5.048;2023-06-10T13:45:00;1015.7;;;32.0;26.5
72226;BME280;60130;52.250;5.048;2023-06-10T13:50:00;1015.7;;;32.0;25.9
72226;BME280;60130;52.250;5.048;2023-06-10T13:55:00;1015.6;;;32.0;26.2
72226;BME280;60130;52.250;5.048;2023-06-10T14:00:00;1015.6;;;32.1;27.0
72226;BME280;60130;52.250;5.048;2023-06-10T14:05:00;1015.6;;;31.6;34.4
72226;BME280;60130;52.250;5.048;2023-06-10T14:10:00;1015.5;;;31.2;35.3
72226;BME280;60130;52.250;5.048;2023-06-10T14:15:00;1015.6;;;30.9;34.2
72226;BME280;60130;52.250;5.048;2023-06-10T14:20:00;1015.4;;;30.6;35.7
72226;BME280;60130;52.250;5.048;2023-06-10T14:25:00;1015.5;;;30.6;34.8
72226;BME280;60130;52.250;5.048;2023-06-10T14:30:00;1015.5;;;30.5;34.0
72226;BME280;60130;52.250;5.048;2023-06-10T14:35:00;1015.5;;;30.9;34.3
72226;BME280;60130;52.250;5.048;2023-06-10T14:40:00;1015.5;;;30.4;34.8
72226;BME280;60130;52.250;5.048;2023-06-10T14:45:00;1015.5;;;30.8;33.6
72226;BME280;60130;52.250;5.048;2023-06-10T14:50:00;1015.5;;;30.3;33.7
72226;BME280;60130;52.250;5.048;2023-06-10T14:55:00;1015.6;;;30.3;33.5
72226;BME280;60130;52.250;5.048;2023-06-10T15:00:00;1015.5;;;30.3;32.4
72226;BME280;60130;52.250;5.048;2023-06-10T15:05:00;1015.5;;;30.6;31.7
72226;BME280;60130;52.250;5.048;2023-06-10T15:10:00;1015.5;;;30.5;32.4
72226;BME280;60130;52.250;5.048;2023-06-10T15:15:00;1015.5;;;30.8;31.2
72226;BME280;60130;52.250;5.048;2023-06-10T15:20:00;1015.5;;;30.5;31.2
72226;BME280;60130;52.250;5.048;2023-06-10T15:25:00;1015.4;;;30.6;31.2
72226;BME280;60130;52.250;5.048;2023-06-10T15:30:00;1015.4;;;30.7;31.4
72226;BME280;60130;52.250;5.048;2023-06-10T15:35:00;1015.3;;;30.2;30.8
72226;BME280;60130;52.250;5.048;2023-06-10T15:40:00;1015.3;;;30.0;31.5
72226;BME280;60130;52.250;5.048;2023-06-10T15:45:00;1015.3;;;30.0;31.7
72226;BME280;60130;52.250;5.048;2023-06-10T15:50:00;1015.2;;;30.0;31.3
72226;BME280;60130;52.250;5.048;2023-06-10T15:55:00;1015.2;;;30.1;31.9
72226;BME280;60130;52.250;5.048;2023-06-10T16:00:00;1015.3;;;30.2;31.5
72226;BME280;60130;52.250;5.048;2023-06-10T16:05:00;1015.2;;;30.4;32.2
72226;BME280;60130;52.250;5.048;2023-06-10T16:10:00;1015.1;;;30.3;31.4
72226;BME280;60130;52.250;5.048;2023-06-10T16:15:00;1015.1;;;30.2;32.2
72226;BME280;60130;52.250;5.048;2023-06-10T16:20:00;1015.0;;;30.3;31.8
72226;BME280;60130;52.250;5.048;2023-06-10T16:25:00;1015.1;;;30.0;33.0
72226;BME280;60130;52.250;5.048;2023-06-10T16:30:00;1015.0;;;30.3;32.2
72226;BME280;60130;52.250;5.048;2023-06-10T16:35:00;1015.0;;;30.4;32.5
72226;BME280;60130;52.250;5.048;2023-06-10T16:40:00;1015.0;;;30.4;32.2
72226;BME280;60130;52.250;5.048;2023-06-10T16:45:00;1015.0;;;30.3;32.4
72226;BME280;60130;52.250;5.048;2023-06-10T16:50:00;1015.0;;;30.5;32.3
72226;BME280;60130;52.250;5.048;2023-06-10T16:55:00;1015.1;;;30.7;31.6
72226;BME280;60130;52.250;5.048;2023-06-10T17:00:00;1015.1;;;30.9;32.1
72226;BME280;60130;52.250;5.048;2023-06-10T17:05:00;1015.1;;;30.5;31.7
72226;BME280;60130;52.250;5.048;2023-06-10T17:10:00;1015.1;;;30.6;31.2
72226;BME280;60130;52.250;5.048;2023-06-10T17:15:00;1015.1;;;30.7;31.3
72226;BME280;60130;52.250;5.048;2023-06-10T17:20:00;1015.2;;;31.1;31.5
72226;BME280;60130;52.250;5.048;2023-06-10T17:25:00;1015.2;;;31.0;31.4
72226;BME280;60130;52.250;5.048;2023-06-10T17:30:00;1015.2;;;30.9;31.2
72226;BME280;60130;52.250;5.048;2023-06-10T17:35:00;1015.2;;;31.2;31.6
72226;BME280;60130;52.250;5.048;2023-06-10T17:40:00;1015.1;;;31.0;31.6
72226;BME280;60130;52.250;5.048;2023-06-10T17:45:00;1015.2;;;31.1;31.8
72226;BME280;60130;52.250;5.048;2023-06-10T17:50:00;1015.2;;;31.2;31.0
72226;BME280;60130;52.250;5.048;2023-06-10T17:55:00;1015.2;;;31.2;30.8
72226;BME280;60130;52.250;5.048;2023-06-10T18:00:00;1015.2;;;31.2;28.2
72226;BME280;60130;52.250;5.048;2023-06-10T18:05:00;1015.2;;;30.9;26.2
72226;BME280;60130;52.250;5.048;2023-06-10T18:10:00;1015.2;;;30.6;26.6
72226;BME280;60130;52.250;5.048;2023-06-10T18:15:00;1015.2;;;30.4;26.9
72226;BME280;60130;52.250;5.048;2023-06-10T18:20:00;1015.2;;;30.5;26.0
72226;BME280;60130;52.250;5.048;2023-06-10T18:25:00;1015.2;;;30.5;26.2
72226;BME280;60130;52.250;5.048;2023-06-10T18:30:00;1015.2;;;30.1;26.6
72226;BME280;60130;52.250;5.048;2023-06-10T18:35:00;1015.3;;;30.4;26.0
72226;BME280;60130;52.250;5.048;2023-06-10T18:40:00;1015.3;;;30.1;26.7
72226;BME280;60130;52.250;5.048;2023-06-10T18:45:00;1015.3;;;29.9;26.8
72226;BME280;60130;52.250;5.048;2023-06-10T18:50:00;1015.3;;;29.7;27.2
72226;BME280;60130;52.250;5.048;2023-06-10T18:55:00;1015.4;;;29.5;27.4
72226;BME280;60130;52.250;5.048;2023-06-10T19:00:00;1015.5;;;29.2;27.9
72226;BME280;60130;52.250;5.048;2023-06-10T19:05:00;1015.5;;;29.0;28.5
72226;BME280;60130;52.250;5.048;2023-06-10T19:10:00;1015.6;;;28.7;29.0
72226;BME280;60130;52.250;5.048;2023-06-10T19:15:00;1015.6;;;28.4;29.3
72226;BME280;60130;52.250;5.048;2023-06-10T19:20:00;1015.6;;;28.0;29.6
72226;BME280;60130;52.250;5.048;2023-06-10T19:25:01;1015.7;;;27.2;31.1
72226;BME280;60130;52.250;5.048;2023-06-10T19:30:00;1015.7;;;26.5;33.0
72226;BME280;60130;52.250;5.048;2023-06-10T19:35:00;1015.7;;;26.1;33.2
72226;BME280;60130;52.250;5.048;2023-06-10T19:40:00;1015.8;;;25.9;34.0
72226;BME280;60130;52.250;5.048;2023-06-10T19:45:00;1015.8;;;25.6;34.2
72226;BME280;60130;52.250;5.048;2023-06-10T19:50:00;1016.0;;;25.5;34.5
72226;BME280;60130;52.250;5.048;2023-06-10T19:55:00;1016.0;;;25.3;35.3
72226;BME280;60130;52.250;5.048;2023-06-10T20:00:00;1016.0;;;25.0;35.6
72226;BME280;60130;52.250;5.048;2023-06-10T20:05:00;1016.0;;;24.9;36.3
72226;BME280;60130;52.250;5.048;2023-06-10T20:10:00;1016.0;;;24.6;36.8
72226;BME280;60130;52.250;5.048;2023-06-10T20:15:00;1016.0;;;24.5;37.0
72226;BME280;60130;52.250;5.048;2023-06-10T20:20:00;1016.1;;;24.4;37.2
72226;BME280;60130;52.250;5.048;2023-06-10T20:25:00;1016.2;;;24.3;37.5
72226;BME280;60130;52.250;5.048;2023-06-10T20:30:00;1016.2;;;24.1;37.9
72226;BME280;60130;52.250;5.048;2023-06-10T20:35:00;1016.3;;;24.0;38.7
72226;BME280;60130;52.250;5.048;2023-06-10T20:40:00;1016.3;;;23.8;40.0
72226;BME280;60130;52.250;5.048;2023-06-10T20:45:00;1016.3;;;23.7;41.0
72226;BME280;60130;52.250;5.048;2023-06-10T20:50:00;1016.3;;;23.6;41.3
72226;BME280;60130;52.250;5.048;2023-06-10T20:55:00;1016.4;;;23.4;41.8
72226;BME280;60130;52.250;5.048;2023-06-10T21:00:00;1016.4;;;23.3;42.7
72226;BME280;60130;52.250;5.048;2023-06-10T21:05:00;1016.5;;;23.2;43.2
72226;BME280;60130;52.250;5.048;2023-06-10T21:10:00;1016.5;;;23.1;43.4
72226;BME280;60130;52.250;5.048;2023-06-10T21:15:00;1016.4;;;23.0;44.0
72226;BME280;60130;52.250;5.048;2023-06-10T21:20:00;1016.5;;;22.9;44.5
72226;BME280;60130;52.250;5.048;2023-06-10T21:25:00;1016.5;;;22.8;45.0
72226;BME280;60130;52.250;5.048;2023-06-10T21:30:00;1016.5;;;22.6;45.4
72226;BME280;60130;52.250;5.048;2023-06-10T21:35:00;1016.6;;;22.5;46.0
72226;BME280;60130;52.250;5.048;2023-06-10T21:40:00;1016.5;;;22.5;46.2
72226;BME280;60130;52.250;5.048;2023-06-10T21:45:00;1016.6;;;22.3;46.4
72226;BME280;60130;52.250;5.048;2023-06-10T21:50:00;1016.6;;;22.2;46.5
72226;BME280;60130;52.250;5.048;2023-06-10T21:55:00;1016.6;;;22.1;46.8
72226;BME280;60130;52.250;5.048;2023-06-10T22:00:00;1016.5;;;22.1;46.2
72226;BME280;60130;52.250;5.048;2023-06-10T22:05:00;1016.5;;;22.0;46.3
72226;BME280;60130;52.250;5.048;2023-06-10T22:10:00;1016.5;;;21.9;45.5
72226;BME280;60130;52.250;5.048;2023-06-10T22:15:00;1016.5;;;21.9;45.3
72226;BME280;60130;52.250;5.048;2023-06-10T22:20:00;1016.5;;;21.9;45.2
72226;BME280;60130;52.250;5.048;2023-06-10T22:25:00;1016.5;;;21.8;45.3
72226;BME280;60130;52.250;5.048;2023-06-10T22:30:00;1016.5;;;21.7;45.6
72226;BME280;60130;52.250;5.048;2023-06-10T22:35:01;1016.5;;;21.6;46.4
72226;BME280;60130;52.250;5.048;2023-06-10T22:40:00;1016.5;;;21.5;46.7
72226;BME280;60130;52.250;5.048;2023-06-10T22:45:00;1016.5;;;21.4;47.1
72226;BME280;60130;52.250;5.048;2023-06-10T22:50:00;1016.5;;;21.4;47.5
72226;BME280;60130;52.250;5.048;2023-06-10T22:55:00;1016.5;;;21.3;47.9
72226;BME280;60130;52.250;5.048;2023-06-10T23:00:00;1016.5;;;21.2;48.0
72226;BME280;60130;52.250;5.048;2023-06-10T23:05:00;1016.5;;;21.2;47.8
72226;BME280;60130;52.250;5.048;2023-06-10T23:10:00;1016.5;;;21.2;47.7
72226;BME280;60130;52.250;5.048;2023-06-10T23:15:00;1016.5;;;21.1;47.9
72226;BME280;60130;52.250;5.048;2023-06-10T23:20:00;1016.5;;;21.1;48.2
72226;BME280;60130;52.250;5.048;2023-06-10T23:25:00;1016.5;;;21.0;48.6
72226;BME280;60130;52.250;5.048;2023-06-10T23:30:00;1016.5;;;20.9;49.2
72226;BME280;60130;52.250;5.048;2023-06-10T23:35:00;1016.5;;;20.8;49.6
72226;BME280;60130;52.250;5.048;2023-06-10T23:40:00;1016.5;;;20.7;50.1
72226;BME280;60130;52.250;5.048;2023-06-10T23:45:00;1016.4;;;20.7;50.5
72226;BME280;60130;52.250;5.048;2023-06-10T23:50:00;1016.4;;;20.6;50.8
72226;BME280;60130;52.250;5.048;2023-06-10T23:55:00;1016.4;;;20.6;51.0
